Time;durP1;ratioP1;P1;durP2;ratioP2;P2;SDS_P1;SDS_P2;PMS_P1;PMS_P2;Temp;Humidity;BMP_temperature;BMP_pressure;BME280_temperature;BME280_humidity;BME280_pressure;Samples;Min_cycle;Max_cycle;Signal;HPM_P1;HPM_P2
2023/11/15 00:00:20;;;;;;;0.90;0.55;;;;;;;9.62;90.73;92233.16;2068080;69;20236;-79
2023/11/15 00:02:46;;;;;;;0.50;0.50;;;;;;;9.71;90.23;92245.56;2071428;69;20259;-79
2023/11/15 00:05:13;;;;;;;1.85;0.60;;;;;;;9.77;90.03;92251.56;2071411;69;20171;-80
2023/11/15 00:07:38;;;;;;;2.28;0.60;;;;;;;9.81;89.43;92251.06;2071351;69;20167;-79
2023/11/15 00:10:05;;;;;;;3.45;0.50;;;;;;;9.80;89.26;92261.56;2071378;69;20152;-79
2023/11/15 00:12:32;;;;;;;1.48;0.40;;;;;;;9.63;90.09;92279.59;2071285;69;20183;-79
2023/11/15 00:14:58;;;;;;;0.77;0.60;;;;;;;9.74;89.75;92297.03;2068158;69;20170;-79
2023/11/15 00:17:24;;;;;;;4.40;0.60;;;;;;;9.65;90.10;92307.06;2071718;69;20699;-79
2023/11/15 00:19:51;;;;;;;1.25;0.52;;;;;;;9.58;90.01;92302.47;2068406;69;20243;-79
2023/11/15 00:22:25;;;;;;;3.35;1.00;;;;;;;9.70;90.14;92291.16;2068573;69;20171;-79
2023/11/15 00:24:52;;;;;;;3.45;1.98;;;;;;;9.50;91.12;92283.03;2070830;69;20144;-79
2023/11/15 00:27:20;;;;;;;2.50;1.85;;;;;;;9.70;90.29;92286.28;2067852;69;20152;-79
2023/11/15 00:29:45;;;;;;;2.83;0.70;;;;;;;9.72;89.75;92280.06;2071153;69;20168;-79
2023/11/15 00:32:11;;;;;;;2.50;0.50;;;;;;;9.71;89.50;92290.53;2071329;69;20186;-80
2023/11/15 00:34:39;;;;;;;2.35;0.50;;;;;;;9.43;91.33;92292.44;2070945;69;20231;-80
2023/11/15 00:37:06;;;;;;;0.68;0.55;;;;;;;9.39;91.83;92309.06;2068136;69;20585;-80
2023/11/15 00:39:32;;;;;;;3.25;0.35;;;;;;;9.55;90.95;92320.53;2067872;69;20224;-79
2023/11/15 00:41:58;;;;;;;1.58;0.50;;;;;;;9.30;92.00;92327.56;2071066;69;20595;-79
2023/11/15 00:44:24;;;;;;;1.80;0.70;;;;;;;9.55;90.83;92334.59;2071282;69;20143;-78
2023/11/15 00:46:51;;;;;;;0.88;0.43;;;;;;;9.68;90.06;92345.94;2071209;69;20156;-79
2023/11/15 00:49:17;;;;;;;3.13;0.63;;;;;;;9.73;89.77;92348.97;2067919;69;20164;-78
2023/11/15 00:51:42;;;;;;;1.05;0.60;;;;;;;9.66;89.91;92356.31;2067809;69;20509;-78
2023/11/15 00:54:08;;;;;;;1.92;0.50;;;;;;;9.66;89.47;92373.91;2064624;69;20148;-78
2023/11/15 00:56:34;;;;;;;2.88;0.65;;;;;;;9.80;89.05;92384.50;2071052;69;20151;-78
2023/11/15 00:58:59;;;;;;;1.23;0.40;;;;;;;9.78;89.09;92392.84;2067802;69;20140;-78
2023/11/15 01:01:25;;;;;;;0.38;0.30;;;;;;;9.60;89.01;92381.25;2071619;69;20140;-78
2023/11/15 01:03:56;;;;;;;1.40;0.40;;;;;;;9.72;89.43;92392.50;2071489;69;20183;-78
2023/11/15 01:06:23;;;;;;;1.15;0.50;;;;;;;9.66;88.87;92387.94;2071462;69;20208;-78
2023/11/15 01:08:50;;;;;;;1.02;0.50;;;;;;;9.50;89.15;92375.03;2071539;69;20519;-78
2023/11/15 01:11:19;;;;;;;0.57;0.55;;;;;;;9.35;90.24;92371.38;2067325;69;20818;-79
2023/11/15 01:13:49;;;;;;;2.00;0.57;;;;;;;9.23;90.46;92362.22;2071813;69;20222;-79
2023/11/15 01:16:22;;;;;;;0.93;0.50;;;;;;;9.37;89.58;92379.94;2071798;69;20543;-78
2023/11/15 01:18:54;;;;;;;0.80;0.40;;;;;;;9.36;89.59;92383.34;2068287;69;20235;-78
2023/11/15 01:21:21;;;;;;;2.60;0.50;;;;;;;9.40;89.19;92361.84;2071691;69;20533;-79
2023/11/15 01:24:00;;;;;;;0.90;0.35;;;;;;;9.45;88.98;92356.47;2068708;69;20635;-79
2023/11/15 01:26:31;;;;;;;0.47;0.40;;;;;;;9.36;89.53;92338.41;2072104;69;20147;-79
2023/11/15 01:28:58;;;;;;;0.68;0.40;;;;;;;9.37;89.85;92326.56;2071975;69;20614;-79
2023/11/15 01:31:25;;;;;;;3.50;0.40;;;;;;;9.21;90.35;92322.78;2072198;69;20144;-79
2023/11/15 01:33:52;;;;;;;0.65;0.40;;;;;;;9.23;90.01;92311.66;2065931;69;20172;-78
2023/11/15 01:36:19;;;;;;;1.33;0.60;;;;;;;9.41;89.11;92332.41;2071868;69;20148;-80
2023/11/15 01:38:49;;;;;;;0.93;0.40;;;;;;;9.42;89.16;92342.28;2067864;69;20140;-79
2023/11/15 01:41:16;;;;;;;1.85;0.60;;;;;;;9.35;88.80;92348.91;2068112;69;20136;-80
2023/11/15 01:43:44;;;;;;;0.50;0.40;;;;;;;9.10;90.28;92388.84;2071672;69;20136;-79
2023/11/15 01:46:14;;;;;;;0.40;0.30;;;;;;;9.19;89.08;92414.59;2068293;69;20239;-79
2023/11/15 01:48:40;;;;;;;1.30;0.30;;;;;;;9.26;89.13;92408.75;2068279;69;20194;-79
2023/11/15 01:51:10;;;;;;;0.22;0.20;;;;;;;9.39;88.71;92413.78;2068398;69;20167;-79
2023/11/15 01:53:38;;;;;;;1.45;0.28;;;;;;;9.34;89.25;92420.47;2068244;69;20172;-78
2023/11/15 01:56:10;;;;;;;4.28;0.30;;;;;;;9.45;88.53;92430.25;2068230;69;20136;-79
2023/11/15 01:58:41;;;;;;;1.27;0.40;;;;;;;8.76;90.84;92420.41;2062598;69;20603;-79
2023/11/15 02:01:13;;;;;;;2.30;0.50;;;;;;;8.58;91.96;92411.56;2068281;69;20148;-79
2023/11/15 02:03:38;;;;;;;1.15;0.30;;;;;;;8.97;90.97;92434.34;2068536;69;20137;-79
2023/11/15 02:06:06;;;;;;;0.30;0.30;;;;;;;9.22;89.76;92439.41;2071768;69;20140;-78
2023/11/15 02:08:37;;;;;;;0.40;0.32;;;;;;;9.22;89.75;92435.88;2071631;69;20180;-79
2023/11/15 02:11:04;;;;;;;1.40;0.22;;;;;;;9.31;89.75;92463.84;2068297;69;20133;-80
2023/11/15 02:13:31;;;;;;;0.20;0.20;;;;;;;9.40;89.04;92460.19;2068160;69;20679;-79
2023/11/15 02:15:59;;;;;;;2.92;0.22;;;;;;;9.42;88.76;92449.06;2071606;69;20152;-79
2023/11/15 02:18:25;;;;;;;0.65;0.20;;;;;;;9.41;88.79;92449.69;2068265;69;20541;-79
2023/11/15 02:20:53;;;;;;;1.20;0.30;;;;;;;9.45;88.55;92460.44;2065433;69;20188;-79
2023/11/15 02:23:21;;;;;;;0.35;0.30;;;;;;;9.39;88.62;92461.53;2064756;69;20192;-80
2023/11/15 02:25:50;;;;;;;0.20;0.20;;;;;;;9.42;87.62;92449.06;2064695;69;20159;-79
2023/11/15 02:28:19;;;;;;;1.90;0.10;;;;;;;9.37;88.14;92461.41;2068343;69;20236;-78
2023/11/15 02:34:34;;;;;;;0.30;0.13;;;;;;;9.05;88.92;92408.84;2067927;69;20169;-78
2023/11/15 02:37:00;;;;;;;0.82;0.35;;;;;;;8.95;89.33;92430.69;2068150;69;20133;-78
2023/11/15 02:39:29;;;;;;;1.05;0.25;;;;;;;9.13;88.94;92426.22;2068100;69;20148;-78
2023/11/15 02:41:57;;;;;;;0.95;0.40;;;;;;;9.08;88.38;92416.81;2067905;69;20152;-78
2023/11/15 02:44:34;;;;;;;2.47;0.32;;;;;;;9.17;88.80;92429.28;2068055;69;20156;-78
2023/11/15 02:47:00;;;;;;;0.63;0.40;;;;;;;9.22;88.47;92436.59;2064798;69;20606;-78
2023/11/15 02:49:27;;;;;;;4.15;0.30;;;;;;;9.21;88.30;92440.75;2064713;69;20227;-78
2023/11/15 02:51:54;;;;;;;1.48;0.47;;;;;;;8.97;88.93;92444.84;2066353;69;20143;-78
2023/11/15 02:54:20;;;;;;;2.00;0.30;;;;;;;9.09;89.06;92457.56;2070779;69;20157;-79
2023/11/15 02:56:46;;;;;;;3.15;0.38;;;;;;;9.11;88.88;92476.63;2067718;69;20213;-79
2023/11/15 02:59:12;;;;;;;4.10;0.35;;;;;;;8.68;90.47;92481.63;2070111;69;20693;-79
2023/11/15 03:01:46;;;;;;;0.28;0.20;;;;;;;8.94;90.23;92488.19;2072147;69;20155;-79
2023/11/15 03:04:12;;;;;;;0.45;0.28;;;;;;;9.05;89.46;92485.41;2068683;69;20164;-79
2023/11/15 03:06:38;;;;;;;1.92;0.30;;;;;;;9.01;89.48;92478.78;2068683;69;20143;-79
2023/11/15 03:09:03;;;;;;;0.43;0.30;;;;;;;9.12;89.17;92492.16;2068866;69;20152;-79
2023/11/15 03:11:29;;;;;;;0.20;0.20;;;;;;;8.94;88.62;92460.13;2068157;69;20156;-79
2023/11/15 03:13:55;;;;;;;0.20;0.20;;;;;;;9.18;88.69;92492.50;2071700;69;20213;-79
2023/11/15 03:16:21;;;;;;;0.70;0.35;;;;;;;9.21;88.56;92508.16;2071511;69;20587;-79
2023/11/15 03:18:47;;;;;;;0.60;0.20;;;;;;;9.12;88.53;92515.34;2068318;69;20141;-80
2023/11/15 03:21:12;;;;;;;0.57;0.20;;;;;;;9.09;88.68;92524.25;2071677;69;20175;-80
2023/11/15 03:23:39;;;;;;;0.40;0.10;;;;;;;9.07;89.00;92518.47;2071771;69;20549;-81
2023/11/15 03:26:04;;;;;;;0.65;0.20;;;;;;;9.17;88.53;92533.19;2071620;69;20163;-80
2023/11/15 03:28:31;;;;;;;0.10;0.10;;;;;;;9.21;87.96;92535.50;2071727;69;20145;-80
2023/11/15 03:30:57;;;;;;;0.10;0.10;;;;;;;9.17;88.13;92527.56;2071675;69;20156;-79
2023/11/15 03:33:23;;;;;;;1.20;0.22;;;;;;;9.27;87.85;92544.31;2071843;69;20225;-78
2023/11/15 03:35:49;;;;;;;1.55;0.20;;;;;;;9.20;87.67;92553.69;2071797;69;20227;-78
2023/11/15 03:38:16;;;;;;;0.82;0.10;;;;;;;9.07;88.78;92558.56;2068342;69;20156;-79
2023/11/15 03:40:42;;;;;;;1.17;0.20;;;;;;;9.13;87.98;92552.59;2071620;69;20504;-79
2023/11/15 03:43:09;;;;;;;1.20;0.20;;;;;;;9.14;88.35;92588.47;2071740;69;20147;-79
2023/11/15 03:45:34;;;;;;;0.20;0.20;;;;;;;9.11;88.18;92592.50;2071753;69;20164;-79
2023/11/15 03:48:03;;;;;;;1.08;0.30;;;;;;;9.01;88.52;92591.09;2068464;69;20484;-79
2023/11/15 03:50:29;;;;;;;0.45;0.10;;;;;;;8.95;88.64;92593.53;2068345;69;20152;-80
2023/11/15 03:52:57;;;;;;;0.28;0.28;;;;;;;9.08;88.55;92613.38;2068321;69;20133;-80
2023/11/15 03:55:23;;;;;;;1.80;0.20;;;;;;;9.06;88.53;92610.41;2068130;69;20609;-80
2023/11/15 03:57:50;;;;;;;2.83;0.20;;;;;;;8.65;89.12;92593.72;2071685;69;20158;-79
2023/11/15 04:00:18;;;;;;;1.80;0.60;;;;;;;8.71;90.55;92599.03;2068310;69;20171;-80
2023/11/15 04:02:45;;;;;;;4.32;0.60;;;;;;;8.71;91.26;92610.25;2068351;69;20169;-80
2023/11/15 04:05:12;;;;;;;0.70;0.50;;;;;;;8.96;89.90;92614.66;2071724;69;20235;-79
2023/11/15 04:07:39;;;;;;;0.50;0.35;;;;;;;8.78;90.01;92602.97;2071757;69;20152;-80
2023/11/15 04:10:09;;;;;;;0.90;0.90;;;;;;;8.94;89.66;92604.03;2071561;69;20141;-80
2023/11/15 04:12:37;;;;;;;0.95;0.60;;;;;;;9.00;88.92;92589.66;2068218;69;20147;-80
2023/11/15 04:15:03;;;;;;;3.38;0.45;;;;;;;8.97;88.82;92594.38;2068295;69;20175;-80
2023/11/15 04:17:30;;;;;;;0.77;0.47;;;;;;;9.01;88.63;92579.88;2067540;69;20145;-80
2023/11/15 04:19:56;;;;;;;0.65;0.30;;;;;;;9.07;88.44;92580.25;2067810;69;20509;-80
2023/11/15 04:22:24;;;;;;;0.10;0.10;;;;;;;9.02;88.41;92581.34;2068344;69;20176;-80
2023/11/15 04:24:52;;;;;;;0.45;0.20;;;;;;;9.02;88.13;92592.56;2067713;69;20129;-80
2023/11/15 04:27:18;;;;;;;0.40;0.10;;;;;;;8.92;88.39;92589.84;2067630;69;20147;-80
2023/11/15 04:29:46;;;;;;;2.20;0.30;;;;;;;8.77;89.14;92593.06;2068226;69;20585;-80
2023/11/15 04:32:12;;;;;;;1.65;0.30;;;;;;;8.68;89.82;92579.84;2068117;69;20600;-80
2023/11/15 04:34:38;;;;;;;0.98;0.20;;;;;;;8.80;89.19;92605.91;2068116;69;20148;-80
2023/11/15 04:37:04;;;;;;;0.20;0.20;;;;;;;8.87;88.20;92625.34;2068268;69;20141;-81
2023/11/15 04:39:30;;;;;;;0.65;0.20;;;;;;;8.91;87.73;92634.03;2068249;69;20148;-80
2023/11/15 04:41:55;;;;;;;0.32;0.10;;;;;;;8.94;87.73;92648.22;2068069;69;20140;-81
2023/11/15 04:44:21;;;;;;;2.22;0.60;;;;;;;8.55;89.94;92637.97;2067771;69;20129;-80
2023/11/15 04:46:47;;;;;;;0.30;0.30;;;;;;;8.64;89.29;92639.25;2068221;69;20595;-81
2023/11/15 04:49:13;;;;;;;0.52;0.30;;;;;;;8.87;88.80;92655.50;2067636;69;20168;-80
2023/11/15 04:51:38;;;;;;;0.20;0.20;;;;;;;8.60;88.35;92620.06;2068479;69;20142;-81
2023/11/15 04:54:05;;;;;;;0.35;0.35;;;;;;;8.43;89.81;92653.22;2068284;69;20144;-80
2023/11/15 04:56:32;;;;;;;11.70;5.78;;;;;;;8.73;88.75;92662.97;2068047;69;20220;-81
2023/11/15 04:58:58;;;;;;;3.63;1.45;;;;;;;8.80;88.46;92662.06;2068166;69;20137;-79
2023/11/15 05:01:24;;;;;;;1.63;0.80;;;;;;;8.75;88.45;92637.84;2068229;69;20224;-80
2023/11/15 05:03:50;;;;;;;2.05;0.70;;;;;;;8.83;88.14;92646.78;2068099;69;20156;-80
2023/11/15 05:06:15;;;;;;;1.45;0.40;;;;;;;8.83;88.20;92652.41;2068184;69;20480;-79
2023/11/15 05:08:44;;;;;;;0.60;0.40;;;;;;;8.72;88.21;92659.44;2064760;69;20240;-79
2023/11/15 05:11:10;;;;;;;1.63;0.85;;;;;;;8.71;87.81;92657.25;2067926;69;20132;-79
2023/11/15 05:13:35;;;;;;;0.68;0.57;;;;;;;8.60;88.30;92650.91;2068057;69;20153;-79
2023/11/15 05:16:03;;;;;;;1.10;0.30;;;;;;;8.65;87.91;92627.41;2068267;69;20187;-79
2023/11/15 05:18:30;;;;;;;2.55;0.60;;;;;;;8.62;87.58;92647.53;2067932;69;20160;-79
2023/11/15 05:20:57;;;;;;;0.28;0.28;;;;;;;8.61;87.45;92640.44;2067999;69;20159;-80
2023/11/15 05:23:23;;;;;;;0.50;0.20;;;;;;;8.37;89.21;92639.53;2067465;69;20619;-80
2023/11/15 05:25:49;;;;;;;0.50;0.40;;;;;;;8.63;88.31;92654.63;2068077;69;20156;-80
2023/11/15 05:28:15;;;;;;;1.50;0.80;;;;;;;8.45;87.58;92619.72;2067473;69;20141;-79
2023/11/15 05:30:42;;;;;;;1.25;0.80;;;;;;;8.68;87.06;92647.94;2068124;69;20141;-80
2023/11/15 05:33:08;;;;;;;1.42;0.88;;;;;;;8.11;89.03;92636.41;2068105;69;20145;-80
2023/11/15 05:35:34;;;;;;;1.98;0.90;;;;;;;8.49;88.64;92657.19;2068090;69;20153;-80
2023/11/15 05:38:00;;;;;;;1.02;0.80;;;;;;;8.57;87.77;92654.22;2067962;69;20132;-80
2023/11/15 05:40:25;;;;;;;0.93;0.63;;;;;;;8.62;87.10;92650.34;2067781;69;20518;-79
2023/11/15 05:42:54;;;;;;;1.52;0.50;;;;;;;8.50;87.31;92643.91;2068245;69;20242;-80
2023/11/15 05:45:19;;;;;;;0.45;0.40;;;;;;;8.60;86.52;92638.97;2067836;69;20596;-79
2023/11/15 05:47:47;;;;;;;1.42;0.40;;;;;;;8.60;86.61;92633.34;2067912;69;20155;-79
2023/11/15 05:50:13;;;;;;;0.75;0.50;;;;;;;8.58;86.53;92641.66;2068475;69;20163;-79
2023/11/15 05:52:41;;;;;;;1.88;0.47;;;;;;;8.59;86.62;92641.03;2068623;69;20156;-79
2023/11/15 05:55:08;;;;;;;0.93;0.50;;;;;;;8.42;87.40;92652.50;2068620;69;20136;-79
2023/11/15 05:57:34;;;;;;;1.83;0.70;;;;;;;8.57;87.31;92660.56;2068694;69;20180;-80
2023/11/15 06:00:03;;;;;;;1.63;1.00;;;;;;;8.62;87.19;92672.78;2068611;69;20157;-81
2023/11/15 06:02:37;;;;;;;1.20;0.85;;;;;;;8.59;87.12;92666.28;2068507;69;20238;-81
2023/11/15 06:05:04;;;;;;;1.63;1.20;;;;;;;8.68;86.99;92669.66;2068637;69;20562;-80
2023/11/15 06:07:29;;;;;;;1.05;0.90;;;;;;;8.60;86.81;92676.19;2067943;69;20232;-80
2023/11/15 06:09:58;;;;;;;1.67;1.20;;;;;;;8.62;87.13;92689.63;2068424;69;20148;-80
2023/11/15 06:12:31;;;;;;;2.25;1.55;;;;;;;8.36;88.23;92696.94;2068400;69;20175;-80
2023/11/15 06:14:58;;;;;;;3.15;1.52;;;;;;;8.56;87.63;92700.44;2068431;69;20219;-80
2023/11/15 06:17:28;;;;;;;1.80;1.30;;;;;;;8.52;87.37;92702.94;2070230;69;20164;-80
2023/11/15 06:19:54;;;;;;;3.53;1.25;;;;;;;8.57;87.14;92713.88;2072097;69;20152;-80
2023/11/15 06:22:23;;;;;;;1.50;1.35;;;;;;;8.52;87.47;92714.16;2071809;69;20140;-80
2023/11/15 06:24:50;;;;;;;2.95;1.48;;;;;;;8.56;87.46;92720.06;2071844;69;20227;-80
2023/11/15 06:27:17;;;;;;;1.85;1.40;;;;;;;8.42;88.05;92724.72;2071942;69;20156;-80
2023/11/15 06:29:50;;;;;;;2.78;0.90;;;;;;;8.51;88.10;92733.09;2071773;69;20634;-80
2023/11/15 06:32:16;;;;;;;;;;;;;;;8.65;87.46;92733.31;2071945;69;20688;-80
2023/11/15 06:34:45;;;;;;;0.88;0.65;;;;;;;8.70;87.09;92732.25;2065888;69;20097;-80
2023/11/15 06:37:12;;;;;;;1.15;0.63;;;;;;;8.73;86.85;92731.06;2071852;69;20195;-80
2023/11/15 06:39:40;;;;;;;2.30;0.47;;;;;;;8.70;86.63;92739.94;2071816;69;20205;-80
2023/11/15 06:42:05;;;;;;;1.33;0.50;;;;;;;8.63;87.42;92747.94;2068416;69;20144;-80
2023/11/15 06:44:31;;;;;;;0.88;0.43;;;;;;;8.65;87.09;92744.53;2071825;69;20214;-80
2023/11/15 06:46:59;;;;;;;2.05;0.70;;;;;;;8.63;86.77;92744.41;2071722;69;20205;-80
2023/11/15 06:49:24;;;;;;;1.17;0.40;;;;;;;8.61;86.43;92747.81;2071751;69;20152;-80
2023/11/15 06:51:51;;;;;;;0.55;0.40;;;;;;;8.55;86.61;92761.41;2071686;69;20124;-80
2023/11/15 06:54:23;;;;;;;0.95;0.38;;;;;;;8.63;86.67;92752.84;2068577;69;20144;-80
2023/11/15 06:56:49;;;;;;;0.70;0.60;;;;;;;8.51;87.75;92752.72;2071606;69;20244;-80
2023/11/15 06:59:15;;;;;;;1.73;0.43;;;;;;;8.62;86.90;92759.78;2071687;69;20136;-81
2023/11/15 07:01:41;;;;;;;0.55;0.50;;;;;;;8.62;86.70;92773.81;2071782;69;20164;-80
2023/11/15 07:04:06;;;;;;;2.25;0.65;;;;;;;8.54;86.59;92767.63;2071714;69;20148;-81
2023/11/15 07:06:32;;;;;;;7.22;2.70;;;;;;;8.26;87.70;92755.91;2071774;69;20236;-80
2023/11/15 07:08:59;;;;;;;6.03;3.05;;;;;;;8.54;87.57;92776.06;2068329;69;20552;-81
2023/11/15 07:11:26;;;;;;;3.85;1.52;;;;;;;8.61;87.18;92783.53;2068305;69;20199;-80
2023/11/15 07:13:55;;;;;;;2.13;1.60;;;;;;;8.30;87.21;92781.41;2071641;69;20217;-80
2023/11/15 07:16:21;;;;;;;2.20;1.10;;;;;;;8.55;86.79;92792.28;2071212;69;20143;-80
2023/11/15 07:18:47;;;;;;;0.52;0.40;;;;;;;8.24;87.32;92786.59;2071842;69;20144;-80
2023/11/15 07:21:13;;;;;;;0.93;0.70;;;;;;;8.28;86.74;92778.47;2071706;69;20160;-81
2023/11/15 07:23:42;;;;;;;0.73;0.60;;;;;;;8.58;85.94;92787.56;2068351;69;20149;-81
2023/11/15 07:26:08;;;;;;;0.82;0.73;;;;;;;8.48;86.07;92786.88;2071594;69;20140;-80
2023/11/15 07:28:35;;;;;;;3.38;1.70;;;;;;;8.36;86.89;92781.88;2071678;69;20532;-80
2023/11/15 07:31:01;;;;;;;2.42;0.55;;;;;;;8.52;86.52;92787.88;2068338;69;20827;-80
2023/11/15 07:33:26;;;;;;;2.40;0.82;;;;;;;8.76;85.80;92788.81;2071628;69;20615;-80
2023/11/15 07:35:52;;;;;;;1.70;0.70;;;;;;;8.89;85.69;92793.19;2071703;69;20182;-80
2023/11/15 07:38:18;;;;;;;1.75;1.00;;;;;;;8.95;85.44;92790.06;2071735;69;20215;-80
2023/11/15 07:40:43;;;;;;;1.70;0.95;;;;;;;8.91;86.22;92799.69;2068217;69;20123;-80
2023/11/15 07:43:10;;;;;;;1.35;1.15;;;;;;;9.00;85.55;92811.47;2071735;69;20148;-80
2023/11/15 07:45:36;;;;;;;1.02;0.93;;;;;;;8.78;85.62;92791.75;2071711;69;20227;-80
2023/11/15 07:48:04;;;;;;;2.13;1.65;;;;;;;8.95;85.45;92827.31;2071793;69;20148;-81
2023/11/15 07:50:34;;;;;;;1.35;1.23;;;;;;;8.94;85.61;92836.34;2071770;69;20603;-81
2023/11/15 07:53:00;;;;;;;0.77;0.70;;;;;;;8.84;85.63;92842.72;2071625;69;20586;-81
2023/11/15 07:55:25;;;;;;;0.80;0.60;;;;;;;8.93;85.55;92846.06;2071591;69;20151;-80
2023/11/15 07:57:51;;;;;;;7.38;0.70;;;;;;;8.90;85.85;92853.63;2071676;69;20227;-81
2023/11/15 08:00:22;;;;;;;12.68;4.63;;;;;;;8.82;85.79;92862.22;2071655;69;20502;-81
2023/11/15 08:02:53;;;;;;;5.82;2.92;;;;;;;9.00;85.51;92856.41;2071557;69;20199;-80
2023/11/15 08:05:22;;;;;;;4.32;2.92;;;;;;;9.09;85.59;92864.03;2071806;69;20268;-81
2023/11/15 08:07:51;;;;;;;6.97;2.65;;;;;;;8.93;85.83;92846.81;2071742;69;20173;-81
2023/11/15 08:10:18;;;;;;;5.95;2.90;;;;;;;9.05;85.58;92852.53;2071362;69;20556;-81
2023/11/15 08:12:44;;;;;;;7.13;3.78;;;;;;;9.16;84.93;92852.63;2071584;69;20184;-81
2023/11/15 08:15:14;;;;;;;8.05;3.95;;;;;;;9.22;85.92;92863.53;2071586;69;20175;-81
2023/11/15 08:17:41;;;;;;;3.70;2.60;;;;;;;9.29;85.98;92853.44;2071447;69;20160;-82
2023/11/15 08:20:11;;;;;;;3.00;1.50;;;;;;;9.42;85.61;92855.75;2071647;69;20607;-81
2023/11/15 08:22:37;;;;;;;0.88;0.40;;;;;;;9.51;85.24;92859.84;2068348;69;20172;-81
2023/11/15 08:25:09;;;;;;;3.97;0.32;;;;;;;9.58;85.11;92872.97;2071407;69;20156;-81
2023/11/15 08:27:38;;;;;;;1.33;0.20;;;;;;;9.21;85.57;92883.78;2071510;69;20177;-81
2023/11/15 08:30:11;;;;;;;0.57;0.30;;;;;;;9.01;83.92;92877.53;2071564;69;20148;-80
2023/11/15 08:32:41;;;;;;;0.35;0.35;;;;;;;9.23;84.29;92881.13;2071638;69;20148;-80
2023/11/15 08:35:09;;;;;;;2.38;1.48;;;;;;;9.08;84.67;92874.53;2071590;69;20149;-80
2023/11/15 08:37:37;;;;;;;4.20;1.40;;;;;;;9.27;85.04;92903.88;2071543;69;20213;-81
2023/11/15 08:40:03;;;;;;;1.40;1.00;;;;;;;9.31;84.94;92910.53;2071339;69;20635;-79
2023/11/15 08:42:29;;;;;;;1.30;0.80;;;;;;;9.31;84.59;92913.31;2068236;69;20148;-80
2023/11/15 08:44:55;;;;;;;3.03;1.05;;;;;;;9.42;84.10;92920.38;2071470;69;20197;-81
2023/11/15 08:47:25;;;;;;;3.15;1.10;;;;;;;9.39;84.73;92924.38;2071561;69;20500;-81
2023/11/15 08:49:53;;;;;;;1.92;1.50;;;;;;;9.16;84.77;92911.63;2071678;69;20152;-81
2023/11/15 08:52:23;;;;;;;2.15;1.10;;;;;;;9.52;83.05;92907.00;2071768;69;20140;-80
2023/11/15 08:54:51;;;;;;;2.85;1.00;;;;;;;9.84;83.15;92913.34;2071537;69;20145;-80
2023/11/15 08:57:17;;;;;;;1.65;1.30;;;;;;;9.90;83.00;92920.13;2071493;69;20144;-81
2023/11/15 08:59:45;;;;;;;4.07;2.50;;;;;;;9.91;82.84;92920.84;2071432;69;20307;-82
2023/11/15 09:02:11;;;;;;;2.20;1.50;;;;;;;9.96;82.73;92924.66;2071280;69;20177;-82
2023/11/15 09:04:40;;;;;;;2.50;1.20;;;;;;;10.22;83.06;92936.91;2071426;69;20219;-82
2023/11/15 09:07:07;;;;;;;2.55;1.63;;;;;;;10.05;82.34;92932.31;2071372;69;20128;-82
2023/11/15 09:09:39;;;;;;;15.32;7.57;;;;;;;10.04;82.50;92922.41;2071417;69;20136;-81
2023/11/15 09:12:07;;;;;;;5.65;2.42;;;;;;;10.23;82.08;92911.00;2071344;69;20231;-80
2023/11/15 09:14:35;;;;;;;4.18;1.58;;;;;;;10.56;81.84;92930.00;2071542;69;20168;-79
2023/11/15 09:17:05;;;;;;;2.03;1.50;;;;;;;10.73;80.75;92921.25;2071291;69;20692;-80
2023/11/15 09:19:34;;;;;;;1.80;1.30;;;;;;;10.31;79.93;92908.75;2071414;69;20153;-81
2023/11/15 09:22:04;;;;;;;2.25;1.10;;;;;;;10.65;79.87;92915.13;2071723;69;20147;-80
2023/11/15 09:24:33;;;;;;;1.77;1.30;;;;;;;10.76;80.56;92908.75;2071892;69;20136;-80
2023/11/15 09:27:00;;;;;;;1.40;1.15;;;;;;;10.62;80.49;92928.31;2071774;69;20148;-81
2023/11/15 09:29:29;;;;;;;1.50;1.30;;;;;;;10.26;80.66;92923.88;2072139;69;20227;-82
2023/11/15 09:31:55;;;;;;;1.60;1.13;;;;;;;10.23;81.92;92921.53;2068752;69;20544;-81
2023/11/15 09:34:21;;;;;;;2.63;1.20;;;;;;;10.67;84.25;92923.69;2071953;69;20164;-81
2023/11/15 09:36:50;;;;;;;1.60;1.00;;;;;;;10.41;82.72;92920.66;2071931;69;20243;-81
2023/11/15 09:39:18;;;;;;;1.73;1.35;;;;;;;10.78;79.53;92934.25;2071872;69;20496;-81
2023/11/15 09:41:53;;;;;;;2.17;1.40;;;;;;;11.44;78.25;92933.41;2071831;69;20215;-81
2023/11/15 09:44:24;;;;;;;2.30;1.50;;;;;;;11.85;77.61;92947.16;2071848;69;20202;-81
2023/11/15 09:46:57;;;;;;;3.08;1.50;;;;;;;12.52;77.55;92945.44;2071852;69;20722;-80
2023/11/15 09:49:26;;;;;;;;;;;;;;;12.23;76.53;92945.16;2072054;69;20192;-80
2023/11/15 09:51:52;;;;;;;2.80;2.15;;;;;;;12.02;75.95;92946.06;2071813;69;20469;-80
2023/11/15 09:54:20;;;;;;;2.85;1.92;;;;;;;11.49;73.36;92954.13;2071800;69;20574;-80
2023/11/15 09:56:47;;;;;;;3.53;2.30;;;;;;;11.70;73.57;92960.38;2071710;69;20202;-80
2023/11/15 09:59:12;;;;;;;3.65;1.92;;;;;;;11.69;73.44;92956.09;2071896;69;20664;-80
2023/11/15 10:01:46;;;;;;;2.40;1.73;;;;;;;11.90;73.25;92965.81;2071808;69;20232;-80
2023/11/15 10:04:25;;;;;;;2.60;1.60;;;;;;;11.39;72.19;92968.31;2071794;69;20156;-80
2023/11/15 10:06:58;;;;;;;1.77;1.40;;;;;;;11.64;73.02;92957.19;2071674;69;20149;-80
2023/11/15 10:09:39;;;;;;;1.90;1.40;;;;;;;11.22;74.57;92968.66;2068395;69;20167;-80
2023/11/15 10:12:06;;;;;;;3.55;1.80;;;;;;;11.30;73.82;92972.72;2071625;69;20148;-80
2023/11/15 10:14:36;;;;;;;2.55;1.98;;;;;;;11.32;74.23;92963.66;2071728;69;20136;-81
2023/11/15 10:17:03;;;;;;;1.77;1.50;;;;;;;11.45;73.87;92961.00;2071730;69;20156;-80
2023/11/15 10:19:29;;;;;;;2.17;1.80;;;;;;;11.49;74.38;92960.47;2071818;69;20518;-80
2023/11/15 10:22:05;;;;;;;3.42;2.03;;;;;;;11.68;75.39;92957.44;2071791;69;20161;-81
2023/11/15 10:24:32;;;;;;;4.93;2.10;;;;;;;11.99;75.79;92948.00;2072042;69;20567;-79
2023/11/15 10:27:10;;;;;;;3.30;2.45;;;;;;;12.52;74.41;92961.66;2071682;69;20140;-80
2023/11/15 10:29:37;;;;;;;4.65;3.25;;;;;;;12.20;72.76;92953.50;2072003;69;20235;-81
2023/11/15 10:32:03;;;;;;;4.30;2.95;;;;;;;11.52;73.69;92948.00;2071798;69;20135;-80
2023/11/15 10:34:31;;;;;;;3.72;2.53;;;;;;;11.31;73.67;92965.00;2071938;69;20191;-82
2023/11/15 10:37:10;;;;;;;3.17;2.30;;;;;;;11.70;75.30;92956.81;2071828;69;20136;-82
2023/11/15 10:39:46;;;;;;;1.90;1.42;;;;;;;11.96;74.35;92974.66;2071863;69;20151;-82
2023/11/15 10:42:13;;;;;;;3.28;1.63;;;;;;;11.52;76.17;92993.09;2071796;69;20168;-82
2023/11/15 10:44:40;;;;;;;1.88;1.25;;;;;;;11.64;76.42;92984.66;2071885;69;20140;-82
2023/11/15 10:47:12;;;;;;;1.20;1.10;;;;;;;11.61;75.82;92991.53;2071801;69;20137;-83
2023/11/15 10:49:43;;;;;;;1.73;1.00;;;;;;;11.40;76.07;92997.97;2071892;69;20144;-83
2023/11/15 10:52:11;;;;;;;1.85;1.00;;;;;;;11.34;76.23;93008.88;2072023;69;20140;-83
2023/11/15 10:54:38;;;;;;;2.22;0.93;;;;;;;11.24;76.82;92994.91;2071867;69;20140;-83
2023/11/15 10:57:07;;;;;;;0.82;0.60;;;;;;;11.62;75.46;93010.63;2071711;69;20140;-82
2023/11/15 10:59:41;;;;;;;0.38;0.30;;;;;;;11.85;72.23;92995.84;2071942;69;20151;-83
2023/11/15 11:02:09;;;;;;;0.38;0.30;;;;;;;11.65;71.48;92969.94;2071742;69;20200;-81
2023/11/15 11:04:38;;;;;;;0.73;0.40;;;;;;;12.35;71.93;92997.41;2071831;69;20147;-82
2023/11/15 11:07:23;;;;;;;0.40;0.40;;;;;;;13.39;71.03;92988.47;2071718;69;20168;-81
2023/11/15 11:09:57;;;;;;;0.40;0.20;;;;;;;15.08;68.86;92988.00;2071734;69;20179;-82
2023/11/15 11:12:25;;;;;;;0.40;0.35;;;;;;;15.90;66.78;92990.47;2071790;69;20175;-82
2023/11/15 11:15:28;;;;;;;2.25;1.30;;;;;;;14.14;65.28;93000.25;2071811;69;20587;-82
2023/11/15 11:18:12;;;;;;;1.50;0.70;;;;;;;13.71;67.29;93006.47;2071825;69;20609;-82
2023/11/15 11:20:40;;;;;;;1.70;1.10;;;;;;;13.98;67.29;92995.19;2071972;69;20588;-82
2023/11/15 11:23:11;;;;;;;1.42;0.70;;;;;;;15.85;65.68;93005.88;2071742;69;20172;-82
2023/11/15 11:25:39;;;;;;;0.85;0.60;;;;;;;17.67;61.13;93008.63;2071659;69;20136;-83
2023/11/15 11:28:07;;;;;;;2.03;0.80;;;;;;;19.70;55.26;93010.91;2071723;69;20156;-84
2023/11/15 11:30:33;;;;;;;2.05;0.60;;;;;;;18.90;52.67;93010.38;2071919;69;20176;-83
2023/11/15 11:33:15;;;;;;;0.88;0.70;;;;;;;22.20;48.16;93013.47;2071756;69;20148;-83
2023/11/15 11:35:45;;;;;;;1.70;1.10;;;;;;;18.29;50.88;93006.03;2071762;69;20155;-83
2023/11/15 11:38:43;;;;;;;2.47;1.10;;;;;;;14.91;59.66;92992.84;2071780;69;20167;-82
2023/11/15 11:41:10;;;;;;;1.27;0.90;;;;;;;14.73;60.78;92987.00;2071588;69;20148;-82
2023/11/15 11:43:37;;;;;;;1.60;1.00;;;;;;;14.91;61.09;92983.63;2071741;69;20574;-82
2023/11/15 11:46:15;;;;;;;2.38;1.30;;;;;;;14.85;61.38;92991.84;2071624;69;20493;-81